createdAt,value
2018-11-23T00:01:06.364Z,0
2018-11-23T00:02:15.370Z,0
2018-11-23T00:03:24.292Z,0
2018-11-23T00:04:32.972Z,0
2018-11-23T00:05:41.658Z,0
2018-11-23T00:06:50.585Z,0
2018-11-23T00:07:59.258Z,0
2018-11-23T00:09:07.937Z,0
2018-11-23T00:10:17.958Z,0
2018-11-23T00:11:26.631Z,0
2018-11-23T00:12:35.321Z,0
2018-11-23T00:13:43.999Z,0
2018-11-23T00:14:52.680Z,0
2018-11-23T00:16:01.355Z,0
2018-11-23T00:17:10.031Z,0
2018-11-23T00:18:18.962Z,0
2018-11-23T00:19:27.644Z,0
2018-11-23T00:20:36.315Z,0
2018-11-23T00:21:44.992Z,0
2018-11-23T00:22:53.666Z,0
2018-11-23T00:24:02.342Z,0
2018-11-23T00:25:11.034Z,0
2018-11-23T00:26:19.723Z,0
2018-11-23T00:27:28.656Z,0
2018-11-23T00:28:37.322Z,0
2018-11-23T00:29:46.014Z,0
2018-11-23T00:30:54.934Z,0
2018-11-23T00:32:03.651Z,0
2018-11-23T00:33:12.584Z,0
2018-11-23T00:34:21.525Z,0
2018-11-23T00:35:30.213Z,0
2018-11-23T00:36:39.154Z,0
2018-11-23T00:37:47.820Z,0
2018-11-23T00:38:56.516Z,0
2018-11-23T00:40:05.189Z,0
2018-11-23T00:41:13.883Z,0
2018-11-23T00:42:22.819Z,0
2018-11-23T00:43:31.500Z,0
2018-11-23T00:44:40.430Z,0
2018-11-23T00:45:49.576Z,0
2018-11-23T00:46:58.770Z,0
2018-11-23T00:48:07.955Z,0
2018-11-23T00:49:16.630Z,0
2018-11-23T00:50:26.077Z,0
2018-11-23T00:51:34.754Z,0
2018-11-23T00:52:43.689Z,0
2018-11-23T00:53:52.368Z,0
2018-11-23T00:55:01.315Z,0
2018-11-23T00:56:09.991Z,0
2018-11-23T00:57:18.665Z,0
2018-11-23T00:58:27.343Z,0
2018-11-23T00:59:36.081Z,0
2018-11-23T01:00:44.770Z,0
2018-11-23T01:01:53.456Z,0
2018-11-23T01:03:02.137Z,0
2018-11-23T01:04:11.066Z,0
2018-11-23T01:05:19.746Z,0
2018-11-23T01:06:28.422Z,0
2018-11-23T01:07:37.099Z,0
2018-11-23T01:08:45.770Z,0
2018-11-23T01:09:54.448Z,0
2018-11-23T01:11:03.118Z,0
2018-11-23T01:12:11.804Z,0
2018-11-23T01:13:20.483Z,0
2018-11-23T01:14:29.163Z,0
2018-11-23T01:15:37.840Z,0
2018-11-23T01:16:46.523Z,0
2018-11-23T01:17:55.205Z,0
2018-11-23T01:19:03.879Z,0
2018-11-23T01:20:12.555Z,0
2018-11-23T01:21:21.230Z,0
2018-11-23T01:22:29.926Z,0
2018-11-23T01:23:38.869Z,0
2018-11-23T01:24:47.564Z,0
2018-11-23T01:25:56.496Z,0
2018-11-23T01:27:05.174Z,0
2018-11-23T01:28:13.851Z,0
2018-11-23T01:29:22.531Z,0
2018-11-23T01:30:31.790Z,0
2018-11-23T01:31:40.486Z,0
2018-11-23T01:32:49.162Z,0
2018-11-23T01:33:58.098Z,0
2018-11-23T01:35:06.779Z,0
2018-11-23T01:36:15.461Z,0
2018-11-23T01:37:24.426Z,0
2018-11-23T01:38:33.351Z,0
2018-11-23T01:39:42.024Z,0
2018-11-23T01:40:50.956Z,0
2018-11-23T01:41:59.690Z,0
2018-11-23T01:43:08.359Z,0
2018-11-23T01:44:17.298Z,0
2018-11-23T01:45:25.975Z,0
2018-11-23T01:46:34.910Z,0
2018-11-23T01:47:43.604Z,0
2018-11-23T01:48:52.566Z,0
2018-11-23T01:50:01.249Z,0
2018-11-23T01:51:09.936Z,0
2018-11-23T01:52:18.614Z,0
2018-11-23T01:53:27.538Z,0
2018-11-23T01:54:36.468Z,0
2018-11-23T01:55:45.149Z,0
2018-11-23T01:56:53.878Z,0
2018-11-23T01:58:02.553Z,0
2018-11-23T01:59:11.235Z,0
2018-11-23T02:00:19.911Z,0
2018-11-23T02:01:28.604Z,0
2018-11-23T02:02:37.532Z,0
2018-11-23T02:03:46.216Z,0
2018-11-23T02:04:54.886Z,0
2018-11-23T02:06:03.568Z,0
2018-11-23T02:07:12.503Z,0
2018-11-23T02:08:21.194Z,0
2018-11-23T02:09:30.115Z,0
2018-11-23T02:10:39.061Z,0
2018-11-23T02:11:47.748Z,0
2018-11-23T02:12:56.684Z,0
2018-11-23T02:14:05.365Z,0
2018-11-23T02:15:14.035Z,0
2018-11-23T02:16:22.998Z,0
2018-11-23T02:17:31.668Z,0
2018-11-23T02:18:40.357Z,0
2018-11-23T02:19:49.032Z,0
2018-11-23T02:20:57.979Z,0
2018-11-23T02:22:06.902Z,0
2018-11-23T02:23:15.595Z,0
2018-11-23T02:24:24.259Z,0
2018-11-23T02:25:32.939Z,0
2018-11-23T02:26:41.869Z,0
2018-11-23T02:27:50.817Z,0
2018-11-23T02:28:59.494Z,0
2018-11-23T02:30:08.939Z,0
2018-11-23T02:31:18.126Z,0
2018-11-23T02:32:26.799Z,0
2018-11-23T02:33:35.490Z,0
2018-11-23T02:34:44.166Z,0
2018-11-23T02:35:52.844Z,0
2018-11-23T02:37:01.786Z,0
2018-11-23T02:38:10.464Z,0
2018-11-23T02:39:19.147Z,0
2018-11-23T02:40:28.136Z,0
2018-11-23T02:41:36.801Z,0
2018-11-23T02:42:45.746Z,0
2018-11-23T02:43:54.420Z,0
2018-11-23T02:45:03.100Z,0
2018-11-23T02:46:11.770Z,0
2018-11-23T02:47:20.474Z,0
2018-11-23T02:48:29.410Z,0
2018-11-23T02:49:38.340Z,0
2018-11-23T02:50:47.532Z,0
2018-11-23T02:51:56.453Z,0
2018-11-23T02:53:05.137Z,0
2018-11-23T02:54:13.815Z,0
2018-11-23T02:55:23.033Z,0
2018-11-23T02:56:31.699Z,0
2018-11-23T02:57:40.382Z,0
2018-11-23T02:58:49.585Z,0
2018-11-23T02:59:58.269Z,0
2018-11-23T03:01:06.936Z,0
2018-11-23T03:02:15.616Z,0
2018-11-23T03:03:24.538Z,0
2018-11-23T03:04:33.484Z,0
2018-11-23T03:05:42.163Z,0
2018-11-23T03:06:51.095Z,0
2018-11-23T03:08:00.035Z,0
2018-11-23T03:09:08.999Z,0
2018-11-23T03:10:17.944Z,0
2018-11-23T03:11:26.622Z,0
2018-11-23T03:12:35.302Z,0
2018-11-23T03:13:43.968Z,0
2018-11-23T03:14:52.655Z,0
2018-11-23T03:16:01.580Z,0
2018-11-23T03:17:10.268Z,0
2018-11-23T03:18:18.946Z,0
2018-11-23T03:19:27.630Z,0
2018-11-23T03:20:36.303Z,0
2018-11-23T03:21:44.993Z,0
2018-11-23T03:22:53.660Z,0
2018-11-23T03:24:02.591Z,0
2018-11-23T03:25:11.526Z,0
2018-11-23T03:26:20.209Z,0
2018-11-23T03:27:28.888Z,0
2018-11-23T03:28:37.559Z,0
2018-11-23T03:29:46.244Z,0
2018-11-23T03:30:55.680Z,0
2018-11-23T03:32:05.410Z,0
2018-11-23T03:33:14.849Z,0
2018-11-23T03:34:23.540Z,0
2018-11-23T03:35:32.465Z,0
2018-11-23T03:36:41.411Z,0
2018-11-23T03:37:51.427Z,0
2018-11-23T03:39:00.106Z,0
2018-11-23T03:40:09.042Z,0
2018-11-23T03:41:17.986Z,0
2018-11-23T03:42:26.656Z,0
2018-11-23T03:43:35.581Z,0
2018-11-23T03:44:44.254Z,0
2018-11-23T03:45:52.928Z,0
2018-11-23T03:47:01.865Z,0
2018-11-23T03:48:10.813Z,0
2018-11-23T03:49:19.501Z,0
2018-11-23T03:50:28.170Z,0
2018-11-23T03:51:37.378Z,0
2018-11-23T03:52:46.051Z,0
2018-11-23T03:53:54.727Z,0
2018-11-23T03:55:03.667Z,0
2018-11-23T03:56:12.613Z,0
2018-11-23T03:57:21.291Z,0
2018-11-23T03:58:30.248Z,0
2018-11-23T03:59:39.431Z,0
2018-11-23T04:00:48.113Z,0
2018-11-23T04:01:57.335Z,0
2018-11-23T04:03:06.009Z,0
2018-11-23T04:04:14.686Z,0
2018-11-23T04:05:23.361Z,0
2018-11-23T04:06:32.287Z,0
2018-11-23T04:07:41.224Z,0
2018-11-23T04:08:49.904Z,0
2018-11-23T04:09:58.829Z,0
2018-11-23T04:11:07.505Z,0
2018-11-23T04:12:16.179Z,0
2018-11-23T04:13:24.858Z,0
2018-11-23T04:14:33.533Z,0
2018-11-23T04:15:42.465Z,0
2018-11-23T04:16:51.137Z,0
2018-11-23T04:18:00.088Z,0
2018-11-23T04:19:09.018Z,0
2018-11-23T04:20:17.699Z,0
2018-11-23T04:21:26.665Z,0
2018-11-23T04:22:35.340Z,0
2018-11-23T04:23:44.270Z,0
2018-11-23T04:24:52.946Z,0
2018-11-23T04:26:01.871Z,0
2018-11-23T04:27:11.058Z,0
2018-11-23T04:28:20.003Z,0
2018-11-23T04:29:28.935Z,0
2018-11-23T04:30:37.612Z,0
2018-11-23T04:31:46.539Z,0
2018-11-23T04:32:55.220Z,0
2018-11-23T04:34:03.901Z,0
2018-11-23T04:35:12.583Z,0
2018-11-23T04:36:21.287Z,0
2018-11-23T04:37:29.970Z,0
2018-11-23T04:38:38.658Z,0
2018-11-23T04:39:47.344Z,0
2018-11-23T04:40:56.025Z,0
2018-11-23T04:42:04.951Z,0
2018-11-23T04:43:13.905Z,0
2018-11-23T04:44:22.834Z,0
2018-11-23T04:45:31.505Z,0
2018-11-23T04:46:40.697Z,0
2018-11-23T04:47:49.618Z,0
2018-11-23T04:48:58.293Z,0
2018-11-23T04:50:08.101Z,0
2018-11-23T04:51:17.035Z,0
2018-11-23T04:52:25.707Z,0
2018-11-23T04:53:34.642Z,0
2018-11-23T04:54:43.575Z,0
2018-11-23T04:55:52.251Z,0
2018-11-23T04:57:01.177Z,0
2018-11-23T04:58:09.858Z,0
2018-11-23T04:59:18.534Z,0
2018-11-23T05:00:27.459Z,0
2018-11-23T05:01:36.392Z,0
2018-11-23T05:02:45.110Z,0
2018-11-23T05:03:54.040Z,0
2018-11-23T05:05:03.216Z,0
2018-11-23T05:06:11.895Z,0
2018-11-23T05:07:20.826Z,0
2018-11-23T05:08:29.499Z,0
2018-11-23T05:09:38.188Z,0
2018-11-23T05:10:47.130Z,0
2018-11-23T05:11:56.792Z,0
2018-11-23T05:13:05.484Z,0
2018-11-23T05:14:14.158Z,0
2018-11-23T05:15:22.845Z,0
2018-11-23T05:16:31.558Z,0
2018-11-23T05:17:40.481Z,0
2018-11-23T05:18:49.417Z,0
2018-11-23T05:19:58.095Z,0
2018-11-23T05:21:06.772Z,0
2018-11-23T05:22:15.696Z,0
2018-11-23T05:23:24.375Z,0
2018-11-23T05:24:33.300Z,0
2018-11-23T05:25:41.982Z,0
2018-11-23T05:26:50.655Z,0
2018-11-23T05:27:59.329Z,0
2018-11-23T05:29:08.270Z,0
2018-11-23T05:30:17.457Z,0
2018-11-23T05:31:26.127Z,0
2018-11-23T05:32:35.065Z,0
2018-11-23T05:33:43.988Z,0
2018-11-23T05:34:52.663Z,0
2018-11-23T05:36:01.883Z,0
2018-11-23T05:37:10.818Z,0
2018-11-23T05:38:19.744Z,0
2018-11-23T05:39:28.423Z,0
2018-11-23T05:40:37.122Z,0
2018-11-23T05:41:45.839Z,0
2018-11-23T05:42:54.784Z,0
2018-11-23T05:44:10.802Z,0
2018-11-23T05:45:19.740Z,0
2018-11-23T05:46:28.406Z,0
2018-11-23T05:47:37.333Z,0
2018-11-23T05:48:46.255Z,0
2018-11-23T05:49:55.193Z,0
2018-11-23T05:51:03.874Z,0
2018-11-23T05:52:12.796Z,0
2018-11-23T05:53:21.466Z,0
2018-11-23T05:54:30.151Z,0
2018-11-23T05:55:38.841Z,0
2018-11-23T05:56:47.513Z,0
2018-11-23T05:57:56.485Z,0
2018-11-23T05:59:05.418Z,0
2018-11-23T06:00:14.109Z,0
2018-11-23T06:01:23.031Z,0
2018-11-23T06:02:31.992Z,0
2018-11-23T06:03:40.732Z,0
2018-11-23T06:04:49.497Z,0
2018-11-23T06:05:58.436Z,0
2018-11-23T06:07:07.419Z,0
2018-11-23T06:08:16.389Z,0
2018-11-23T06:09:25.321Z,0
2018-11-23T06:10:34.029Z,0
2018-11-23T06:11:42.963Z,0
2018-11-23T06:12:51.911Z,0
2018-11-23T06:14:00.582Z,0
2018-11-23T06:15:09.513Z,0
2018-11-23T06:16:18.429Z,0
2018-11-23T06:17:27.118Z,0
2018-11-23T06:18:36.038Z,0
2018-11-23T06:19:44.725Z,0
2018-11-23T06:20:53.649Z,0
2018-11-23T06:22:02.330Z,0
2018-11-23T06:23:11.514Z,0
2018-11-23T06:24:20.444Z,0
2018-11-23T06:25:29.665Z,0
2018-11-23T06:26:38.352Z,4
2018-11-23T06:27:47.274Z,4
2018-11-23T06:28:56.455Z,0
2018-11-23T06:30:05.388Z,0
2018-11-23T06:31:14.582Z,4
2018-11-23T06:32:23.275Z,0
2018-11-23T06:33:32.196Z,4
2018-11-23T06:34:40.875Z,4
2018-11-23T06:35:49.545Z,4
2018-11-23T06:36:58.490Z,4
2018-11-23T06:38:07.162Z,4
2018-11-23T06:39:16.108Z,8
2018-11-23T06:40:25.044Z,8
2018-11-23T06:41:33.986Z,12
2018-11-23T06:42:48.634Z,12
2018-11-23T06:43:57.560Z,16
2018-11-23T06:45:06.257Z,20
2018-11-23T06:46:15.448Z,20
2018-11-23T06:47:24.132Z,28
2018-11-23T06:48:32.829Z,28
2018-11-23T06:49:41.768Z,36
2018-11-23T06:50:50.483Z,40
2018-11-23T06:51:59.417Z,44
2018-11-23T06:53:08.095Z,52
2018-11-23T06:54:21.204Z,56
2018-11-23T06:55:29.875Z,64
2018-11-23T06:56:38.551Z,72
2018-11-23T06:57:47.239Z,80
2018-11-23T06:58:56.444Z,88
2018-11-23T07:00:05.417Z,100
2018-11-23T07:01:14.095Z,112
2018-11-23T07:02:22.764Z,120
2018-11-23T07:03:31.452Z,132
2018-11-23T07:04:40.135Z,148
2018-11-23T07:05:49.605Z,160
2018-11-23T07:06:58.539Z,172
2018-11-23T07:08:07.467Z,184
2018-11-23T07:09:16.153Z,200
2018-11-23T07:10:24.828Z,216
2018-11-23T07:11:33.756Z,228
2018-11-23T07:12:42.435Z,244
2018-11-23T07:13:51.453Z,260
2018-11-23T07:15:00.181Z,276
2018-11-23T07:16:09.415Z,292
2018-11-23T07:17:18.903Z,312
2018-11-23T07:18:28.416Z,328
2018-11-23T07:19:37.513Z,344
2018-11-23T07:20:46.529Z,360
2018-11-23T07:21:55.455Z,380
2018-11-23T07:23:04.401Z,396
2018-11-23T07:24:13.094Z,416
2018-11-23T07:25:22.070Z,436
2018-11-23T07:26:30.744Z,452
2018-11-23T07:27:39.420Z,472
2018-11-23T07:28:48.090Z,488
2018-11-23T07:29:57.012Z,508
2018-11-23T07:31:08.988Z,528
2018-11-23T07:32:17.914Z,548
2018-11-23T07:33:26.840Z,564
2018-11-23T07:34:35.517Z,584
2018-11-23T07:35:44.197Z,600
2018-11-23T07:36:52.871Z,620
2018-11-23T07:38:01.552Z,640
2018-11-23T07:39:10.489Z,660
2018-11-23T07:40:19.676Z,676
2018-11-23T07:41:28.350Z,700
2018-11-23T07:42:37.015Z,712
2018-11-23T07:43:45.688Z,732
2018-11-23T07:44:54.366Z,752
2018-11-23T07:46:03.309Z,772
2018-11-23T07:47:12.504Z,788
2018-11-23T07:48:21.197Z,804
2018-11-23T07:49:29.920Z,824
2018-11-23T07:50:39.111Z,844
2018-11-23T07:51:47.780Z,864
2018-11-23T07:52:56.498Z,880
2018-11-23T07:54:05.432Z,900
2018-11-23T07:55:14.122Z,916
2018-11-23T07:56:23.060Z,936
2018-11-23T07:57:32.047Z,952
2018-11-23T07:58:40.978Z,972
2018-11-23T07:59:49.911Z,988
2018-11-23T08:01:00.392Z,1004
2018-11-23T08:02:09.086Z,1020
2018-11-23T08:03:17.776Z,1036
2018-11-23T08:04:26.695Z,1056
2018-11-23T08:05:35.389Z,1072
2018-11-23T08:06:44.337Z,1080
2018-11-23T08:07:53.535Z,1092
2018-11-23T08:09:02.256Z,1112
2018-11-23T08:10:10.977Z,1128
2018-11-23T08:11:20.026Z,1144
2018-11-23T08:12:28.979Z,1164
2018-11-23T08:13:37.903Z,1184
2018-11-23T08:14:46.840Z,1192
2018-11-23T08:15:55.521Z,1208
2018-11-23T08:17:04.209Z,1224
2018-11-23T08:18:12.882Z,1236
2018-11-23T08:19:21.559Z,1252
2018-11-23T08:20:30.237Z,1264
2018-11-23T08:21:39.435Z,1284
2018-11-23T08:22:48.119Z,1300
2018-11-23T08:23:56.795Z,1312
2018-11-23T08:25:05.987Z,1332
2018-11-23T08:26:14.654Z,1340
2018-11-23T08:27:23.594Z,1360
2018-11-23T08:28:32.264Z,1372
2018-11-23T08:29:40.943Z,1380
2018-11-23T08:30:49.614Z,1388
2018-11-23T08:31:58.300Z,1404
2018-11-23T08:33:06.976Z,1424
2018-11-23T08:34:16.162Z,1428
2018-11-23T08:35:25.093Z,1352
2018-11-23T08:36:34.026Z,1244
2018-11-23T08:37:42.969Z,1456
2018-11-23T08:38:51.900Z,1476
2018-11-23T08:40:00.568Z,1496
2018-11-23T08:41:09.857Z,1516
2018-11-23T08:42:18.529Z,1528
2018-11-23T08:43:27.479Z,1540
2018-11-23T08:44:36.147Z,1544
2018-11-23T08:45:44.833Z,1556
2018-11-23T08:46:53.507Z,1572
2018-11-23T08:48:02.254Z,1576
2018-11-23T08:49:10.923Z,1592
2018-11-23T08:50:19.863Z,1608
2018-11-23T08:51:28.542Z,1624
2018-11-23T08:52:37.737Z,1628
2018-11-23T08:53:46.912Z,1640
2018-11-23T08:54:55.604Z,1656
2018-11-23T08:56:04.539Z,1660
2018-11-23T08:57:13.475Z,1668
2018-11-23T08:58:22.405Z,1672
2018-11-23T08:59:31.071Z,1680
2018-11-23T09:00:39.757Z,1696
2018-11-23T09:01:48.687Z,1712
2018-11-23T09:02:57.628Z,1728
2018-11-23T09:04:06.303Z,1728
2018-11-23T09:05:14.989Z,1732
2018-11-23T09:06:23.667Z,1740
2018-11-23T09:07:32.620Z,1756
2018-11-23T09:08:41.290Z,1772
2018-11-23T09:09:50.239Z,1780
2018-11-23T09:10:59.167Z,1792
2018-11-23T09:12:07.893Z,1800
2018-11-23T09:13:16.612Z,1804
2018-11-23T09:14:25.284Z,1812
2018-11-23T09:15:33.959Z,1828
2018-11-23T09:16:42.645Z,1840
2018-11-23T09:17:51.596Z,1848
2018-11-23T09:19:00.307Z,1852
2018-11-23T09:20:09.281Z,1860
2018-11-23T09:21:18.207Z,1872
2018-11-23T09:22:30.544Z,1884
2018-11-23T09:23:39.738Z,1888
2018-11-23T09:24:48.418Z,1900
2018-11-23T09:25:57.091Z,1904
2018-11-23T09:27:05.773Z,1908
2018-11-23T09:28:14.452Z,1924
2018-11-23T09:29:24.069Z,1928
2018-11-23T09:30:32.740Z,1940
2018-11-23T09:31:41.427Z,1948
2018-11-23T09:32:50.110Z,1952
2018-11-23T09:33:58.792Z,1960
2018-11-23T09:35:07.777Z,1964
2018-11-23T09:36:16.702Z,1976
2018-11-23T09:37:25.386Z,1984
2018-11-23T09:38:34.059Z,1988
2018-11-23T09:39:42.926Z,2004
2018-11-23T09:40:51.722Z,2012
2018-11-23T09:42:00.652Z,2020
2018-11-23T09:43:09.580Z,2020
2018-11-23T09:44:18.264Z,2028
2018-11-23T09:45:26.955Z,2040
2018-11-23T09:46:35.888Z,2048
2018-11-23T09:47:44.825Z,2060
2018-11-23T09:48:53.773Z,2064
2018-11-23T09:50:02.706Z,2072
2018-11-23T09:51:11.674Z,2084
2018-11-23T09:52:20.608Z,2084
2018-11-23T09:53:29.284Z,2096
2018-11-23T09:54:38.217Z,2100
2018-11-23T09:55:47.147Z,2108
2018-11-23T09:56:56.075Z,2128
2018-11-23T09:58:05.022Z,2132
2018-11-23T09:59:13.960Z,2132
2018-11-23T10:00:22.756Z,2132
2018-11-23T10:01:31.743Z,2132
2018-11-23T10:02:40.928Z,2140
2018-11-23T10:03:49.893Z,2156
2018-11-23T10:04:58.671Z,2168
2018-11-23T10:06:08.169Z,2172
2018-11-23T10:07:16.841Z,2180
2018-11-23T10:08:26.033Z,2184
2018-11-23T10:09:34.707Z,2192
2018-11-23T10:10:43.388Z,2196
2018-11-23T10:11:52.326Z,2212
2018-11-23T10:13:00.993Z,2224
2018-11-23T10:14:09.670Z,2224
2018-11-23T10:15:18.383Z,2220
2018-11-23T10:16:27.058Z,2216
2018-11-23T10:17:36.000Z,2224
2018-11-23T10:18:44.691Z,2236
2018-11-23T10:19:57.852Z,2244
2018-11-23T10:21:07.283Z,2252
2018-11-23T10:22:16.216Z,2264
2018-11-23T10:23:25.415Z,2268
2018-11-23T10:24:34.127Z,2268
2018-11-23T10:25:42.831Z,2272
2018-11-23T10:26:51.542Z,2268
2018-11-23T10:28:00.506Z,2284
2018-11-23T10:29:09.222Z,2288
2018-11-23T10:30:17.897Z,2292
2018-11-23T10:31:26.840Z,2292
2018-11-23T10:32:35.521Z,2296
2018-11-23T10:33:44.196Z,2296
2018-11-23T10:34:52.876Z,2300
2018-11-23T10:36:02.840Z,2300
2018-11-23T10:37:11.531Z,2304
2018-11-23T10:38:20.207Z,2304
2018-11-23T10:39:28.991Z,2308
2018-11-23T10:40:37.909Z,2308
2018-11-23T10:41:46.837Z,2312
2018-11-23T10:42:55.516Z,2328
2018-11-23T10:44:04.208Z,2324
2018-11-23T10:45:12.894Z,2332
2018-11-23T10:46:21.845Z,2336
2018-11-23T10:47:30.520Z,2352
2018-11-23T10:48:39.204Z,2356
2018-11-23T10:49:47.889Z,2352
2018-11-23T10:50:56.606Z,2360
2018-11-23T10:52:05.574Z,2372
2018-11-23T10:53:14.813Z,2400
2018-11-23T10:54:23.763Z,2424
2018-11-23T10:55:32.441Z,2436
2018-11-23T10:56:41.130Z,2452
2018-11-23T10:57:49.801Z,2472
2018-11-23T10:58:58.771Z,2496
2018-11-23T11:00:07.474Z,2496
2018-11-23T11:01:16.167Z,2504
2018-11-23T11:02:24.835Z,2500
2018-11-23T11:03:33.809Z,2496
2018-11-23T11:04:42.541Z,2488
2018-11-23T11:05:51.480Z,2480
2018-11-23T11:07:01.043Z,2468
2018-11-23T11:08:09.971Z,2452
2018-11-23T11:09:19.217Z,2432
2018-11-23T11:10:27.892Z,2416
2018-11-23T11:11:36.839Z,2404
2018-11-23T11:12:45.505Z,2400
2018-11-23T11:13:54.440Z,2404
2018-11-23T11:15:03.144Z,2400
2018-11-23T11:16:12.104Z,2408
2018-11-23T11:17:21.034Z,2392
2018-11-23T11:18:29.713Z,2396
2018-11-23T11:19:38.383Z,2392
2018-11-23T11:20:47.319Z,2404
2018-11-23T11:21:55.993Z,2412
2018-11-23T11:23:04.933Z,2408
2018-11-23T11:24:14.115Z,2408
2018-11-23T11:25:22.832Z,2420
2018-11-23T11:26:31.523Z,2416
2018-11-23T11:27:40.712Z,2424
2018-11-23T11:28:49.399Z,2436
2018-11-23T11:29:58.107Z,2444
2018-11-23T11:31:06.799Z,2444
2018-11-23T11:32:15.985Z,2448
2018-11-23T11:33:25.181Z,2448
2018-11-23T11:34:34.149Z,2456
2018-11-23T11:35:42.843Z,2472
2018-11-23T11:36:51.527Z,2476
2018-11-23T11:38:00.204Z,2488
2018-11-23T11:39:08.883Z,2504
2018-11-23T11:40:17.583Z,2528
2018-11-23T11:41:26.771Z,2548
2018-11-23T11:42:35.453Z,2584
2018-11-23T11:43:44.136Z,2616
2018-11-23T11:44:53.064Z,2624
2018-11-23T11:46:02.018Z,2624
2018-11-23T11:47:10.965Z,2624
2018-11-23T11:48:19.645Z,2604
2018-11-23T11:49:28.584Z,2592
2018-11-23T11:50:37.517Z,2584
2018-11-23T11:51:46.203Z,2592
2018-11-23T11:52:54.886Z,2576
2018-11-23T11:54:03.820Z,2576
2018-11-23T11:55:12.750Z,2576
2018-11-23T11:56:21.429Z,2572
2018-11-23T11:57:30.114Z,2572
2018-11-23T11:58:38.791Z,2576
2018-11-23T11:59:47.724Z,2592
2018-11-23T12:00:56.653Z,2616
2018-11-23T12:02:10.101Z,2636
2018-11-23T12:03:18.988Z,2652
2018-11-23T12:04:27.931Z,2672
2018-11-23T12:05:36.869Z,2708
2018-11-23T12:06:45.796Z,2740
2018-11-23T12:07:54.480Z,2768
2018-11-23T12:09:03.164Z,2792
2018-11-23T12:10:12.103Z,2852
2018-11-23T12:11:20.784Z,2908
2018-11-23T12:12:29.465Z,2972
2018-11-23T12:13:38.391Z,3012
2018-11-23T12:14:47.074Z,3052
2018-11-23T12:15:55.999Z,3044
2018-11-23T12:17:04.684Z,2976
2018-11-23T12:18:13.628Z,2908
2018-11-23T12:19:22.319Z,2848
2018-11-23T12:20:31.003Z,2780
2018-11-23T12:21:39.928Z,2720
2018-11-23T12:22:48.622Z,2668
2018-11-23T12:23:57.312Z,2620
2018-11-23T12:25:06.249Z,2608
2018-11-23T12:26:14.931Z,2584
2018-11-23T12:27:23.609Z,2548
2018-11-23T12:28:32.292Z,2508
2018-11-23T12:29:40.985Z,2476
2018-11-23T12:30:49.656Z,2456
2018-11-23T12:31:58.334Z,2444
2018-11-23T12:33:07.016Z,2432
2018-11-23T12:34:15.694Z,2408
2018-11-23T12:35:24.633Z,2388
2018-11-23T12:36:33.578Z,2352
2018-11-23T12:37:42.264Z,2328
2018-11-23T12:38:50.946Z,2300
2018-11-23T12:40:00.123Z,2272
2018-11-23T12:41:09.318Z,2256
2018-11-23T12:42:18.008Z,2228
2018-11-23T12:43:26.698Z,2220
2018-11-23T12:44:35.627Z,2200
2018-11-23T12:45:44.302Z,2188
2018-11-23T12:46:53.240Z,2176
2018-11-23T12:48:02.455Z,2152
2018-11-23T12:49:11.392Z,2136
2018-11-23T12:50:20.078Z,2124
2018-11-23T12:51:29.258Z,2112
2018-11-23T12:52:37.942Z,2100
2018-11-23T12:53:47.380Z,2088
2018-11-23T12:54:56.070Z,2072
2018-11-23T12:56:05.050Z,2060
2018-11-23T12:57:13.995Z,2048
2018-11-23T12:58:22.684Z,2036
2018-11-23T12:59:31.366Z,2028
2018-11-23T13:00:40.050Z,2020
2018-11-23T13:01:48.979Z,2012
2018-11-23T13:02:57.914Z,1996
2018-11-23T13:04:07.121Z,1992
2018-11-23T13:05:16.055Z,1988
2018-11-23T13:06:25.076Z,1976
2018-11-23T13:07:33.762Z,1964
2018-11-23T13:08:42.694Z,1960
2018-11-23T13:09:51.374Z,1944
2018-11-23T13:11:00.046Z,1936
2018-11-23T13:12:08.993Z,1924
2018-11-23T13:13:17.676Z,1916
2018-11-23T13:14:26.358Z,1904
2018-11-23T13:15:35.046Z,1892
2018-11-23T13:16:44.017Z,1884
2018-11-23T13:17:52.955Z,1876
2018-11-23T13:19:01.893Z,1856
2018-11-23T13:20:10.579Z,1844
2018-11-23T13:21:19.764Z,1832
2018-11-23T13:22:28.965Z,1820
2018-11-23T13:23:37.645Z,1804
2018-11-23T13:24:46.331Z,1788
2018-11-23T13:25:55.014Z,1780
2018-11-23T13:27:03.955Z,1772
2018-11-23T13:28:12.883Z,1760
2018-11-23T13:29:23.044Z,1752
2018-11-23T13:30:31.729Z,1740
2018-11-23T13:31:40.411Z,1732
2018-11-23T13:32:49.095Z,1724
2018-11-23T13:33:57.775Z,1720
2018-11-23T13:35:06.974Z,1712
2018-11-23T13:36:15.651Z,1700
2018-11-23T13:37:24.343Z,1680
2018-11-23T13:38:33.010Z,1656
2018-11-23T13:39:41.703Z,1644
2018-11-23T13:40:50.634Z,1632
2018-11-23T13:41:59.318Z,1624
2018-11-23T13:43:08.243Z,1608
2018-11-23T13:44:16.938Z,1592
2018-11-23T13:45:26.132Z,1580
2018-11-23T13:46:34.827Z,1572
2018-11-23T13:47:44.002Z,1564
2018-11-23T13:48:52.689Z,1556
2018-11-23T13:50:01.382Z,1548
2018-11-23T13:51:10.072Z,1544
2018-11-23T13:52:18.757Z,1532
2018-11-23T13:53:27.934Z,1520
2018-11-23T13:54:37.123Z,1508
2018-11-23T13:55:45.801Z,1492
2018-11-23T13:56:54.995Z,1480
2018-11-23T13:58:03.669Z,1460
2018-11-23T13:59:12.352Z,1444
2018-11-23T14:00:21.025Z,1428
2018-11-23T14:01:29.716Z,1412
2018-11-23T14:02:38.386Z,1392
2018-11-23T14:03:47.079Z,1372
2018-11-23T14:04:55.757Z,1348
2018-11-23T14:06:04.696Z,1324
2018-11-23T14:07:13.626Z,1304
2018-11-23T14:08:22.598Z,1292
2018-11-23T14:09:31.273Z,1276
2018-11-23T14:10:39.954Z,1264
2018-11-23T14:11:48.903Z,1248
2018-11-23T14:12:58.085Z,1240
2018-11-23T14:14:06.779Z,1232
2018-11-23T14:15:15.450Z,1228
2018-11-23T14:16:24.149Z,1224
2018-11-23T14:17:32.828Z,1220
2018-11-23T14:18:41.814Z,1212
2018-11-23T14:19:50.488Z,1208
2018-11-23T14:20:59.431Z,1196
2018-11-23T14:22:08.106Z,1176
2018-11-23T14:23:16.792Z,1160
2018-11-23T14:24:25.480Z,1152
2018-11-23T14:25:34.678Z,1144
2018-11-23T14:26:43.361Z,1140
2018-11-23T14:27:52.296Z,1132
2018-11-23T14:29:01.043Z,1116
2018-11-23T14:30:09.718Z,1100
2018-11-23T14:31:18.402Z,1076
2018-11-23T14:32:28.025Z,1056
2018-11-23T14:33:36.710Z,1040
2018-11-23T14:34:45.389Z,1028
2018-11-23T14:35:54.323Z,1008
2018-11-23T14:37:03.021Z,980
2018-11-23T14:38:11.965Z,964
2018-11-23T14:39:20.647Z,944
2018-11-23T14:40:29.859Z,928
2018-11-23T14:41:38.536Z,912
2018-11-23T14:42:47.217Z,892
2018-11-23T14:43:55.896Z,868
2018-11-23T14:45:04.573Z,852
2018-11-23T14:46:13.244Z,836
2018-11-23T14:47:22.432Z,816
2018-11-23T14:48:31.628Z,800
2018-11-23T14:49:40.567Z,776
2018-11-23T14:50:49.251Z,756
2018-11-23T14:51:57.937Z,732
2018-11-23T14:53:06.878Z,700
2018-11-23T14:54:15.819Z,676
2018-11-23T14:55:24.758Z,648
2018-11-23T14:56:33.430Z,628
2018-11-23T14:57:42.371Z,608
2018-11-23T14:58:51.048Z,584
2018-11-23T14:59:59.749Z,560
2018-11-23T15:01:08.684Z,540
2018-11-23T15:02:17.880Z,524
2018-11-23T15:03:26.812Z,500
2018-11-23T15:04:35.494Z,484
2018-11-23T15:05:44.174Z,464
2018-11-23T15:06:52.850Z,444
2018-11-23T15:08:01.532Z,424
2018-11-23T15:09:10.467Z,408
2018-11-23T15:10:19.160Z,384
2018-11-23T15:11:27.839Z,364
2018-11-23T15:12:36.548Z,348
2018-11-23T15:13:45.483Z,328
2018-11-23T15:14:54.167Z,304
2018-11-23T15:16:02.843Z,288
2018-11-23T15:17:11.532Z,264
2018-11-23T15:18:20.460Z,248
2018-11-23T15:19:29.149Z,232
2018-11-23T15:20:38.093Z,216
2018-11-23T15:21:47.270Z,196
2018-11-23T15:22:55.947Z,184
2018-11-23T15:24:07.392Z,168
2018-11-23T15:25:16.073Z,152
2018-11-23T15:26:25.013Z,136
2018-11-23T15:27:33.719Z,124
2018-11-23T15:28:42.655Z,112
2018-11-23T15:29:51.336Z,100
2018-11-23T15:31:00.022Z,92
2018-11-23T15:32:08.724Z,80
2018-11-23T15:33:17.444Z,72
2018-11-23T15:34:26.129Z,64
2018-11-23T15:35:34.808Z,60
2018-11-23T15:36:43.745Z,52
2018-11-23T15:37:52.427Z,44
2018-11-23T15:39:01.109Z,40
2018-11-23T15:40:09.836Z,32
2018-11-23T15:41:18.776Z,32
2018-11-23T15:42:27.459Z,28
2018-11-23T15:43:36.144Z,24
2018-11-23T15:44:44.832Z,20
2018-11-23T15:45:53.765Z,16
2018-11-23T15:47:02.702Z,16
2018-11-23T15:48:11.371Z,12
2018-11-23T15:49:20.051Z,8
2018-11-23T15:50:28.732Z,8
2018-11-23T15:51:37.417Z,8
2018-11-23T15:52:46.086Z,4
2018-11-23T15:53:55.017Z,4
2018-11-23T15:55:03.690Z,0
2018-11-23T15:56:12.642Z,4
2018-11-23T15:57:21.318Z,0
2018-11-23T15:58:30.252Z,0
2018-11-23T15:59:38.946Z,4
2018-11-23T16:00:47.651Z,0
2018-11-23T16:01:56.346Z,0
2018-11-23T16:03:05.293Z,0
2018-11-23T16:04:13.983Z,0
2018-11-23T16:05:23.529Z,0